createdAt,value
2018-06-21T00:00:57.755Z,0.00
2018-06-21T00:01:57.797Z,0.00
2018-06-21T00:02:57.832Z,0.00
2018-06-21T00:03:57.869Z,0.00
2018-06-21T00:04:57.906Z,0.00
2018-06-21T00:05:57.943Z,0.00
2018-06-21T00:06:57.981Z,0.00
2018-06-21T00:07:58.018Z,0.00
2018-06-21T00:08:58.056Z,0.00
2018-06-21T00:09:58.094Z,0.00
2018-06-21T00:10:58.131Z,0.00
2018-06-21T00:11:58.168Z,0.00
2018-06-21T00:12:58.205Z,0.00
2018-06-21T00:13:58.243Z,0.00
2018-06-21T00:14:58.282Z,0.00
2018-06-21T00:15:58.317Z,0.00
2018-06-21T00:16:58.356Z,0.00
2018-06-21T00:17:58.393Z,0.00
2018-06-21T00:18:58.430Z,0.00
2018-06-21T00:19:58.470Z,0.00
2018-06-21T00:20:58.504Z,0.00
2018-06-21T00:21:58.543Z,0.00
2018-06-21T00:22:58.578Z,0.00
2018-06-21T00:23:58.616Z,0.00
2018-06-21T00:24:58.653Z,0.00
2018-06-21T00:25:58.691Z,0.00
2018-06-21T00:26:58.728Z,0.00
2018-06-21T00:27:58.765Z,0.00
2018-06-21T00:28:58.802Z,0.00
2018-06-21T00:29:58.839Z,0.00
2018-06-21T00:30:58.877Z,0.00
2018-06-21T00:31:58.913Z,0.00
2018-06-21T00:32:58.951Z,0.00
2018-06-21T00:33:58.988Z,0.00
2018-06-21T00:34:59.026Z,0.00
2018-06-21T00:35:59.062Z,0.00
2018-06-21T00:36:59.102Z,0.00
2018-06-21T00:37:59.137Z,0.00
2018-06-21T00:38:59.174Z,0.00
2018-06-21T00:39:59.209Z,0.00
2018-06-21T00:40:59.248Z,0.00
2018-06-21T00:41:59.300Z,0.00
2018-06-21T00:42:59.326Z,0.00
2018-06-21T00:43:59.359Z,0.00
2018-06-21T00:44:59.399Z,0.00
2018-06-21T00:45:59.433Z,0.00
2018-06-21T00:46:59.470Z,0.00
2018-06-21T00:47:59.507Z,0.00
2018-06-21T00:48:59.545Z,0.00
2018-06-21T00:49:59.580Z,0.00
2018-06-21T00:50:59.619Z,0.00
2018-06-21T00:51:59.655Z,0.00
2018-06-21T00:52:59.695Z,0.00
2018-06-21T00:53:59.730Z,0.00
2018-06-21T00:54:59.766Z,0.00
2018-06-21T00:55:59.805Z,0.00
2018-06-21T00:56:59.840Z,0.00
2018-06-21T00:57:59.880Z,0.00
2018-06-21T00:58:59.915Z,0.00
2018-06-21T00:59:59.951Z,0.00
2018-06-21T01:00:59.989Z,0.00
2018-06-21T01:02:00.031Z,0.00
2018-06-21T01:03:00.124Z,0.00
2018-06-21T01:04:00.099Z,0.00
2018-06-21T01:05:00.137Z,0.00
2018-06-21T01:06:00.175Z,0.00
2018-06-21T01:07:00.210Z,0.00
2018-06-21T01:08:00.247Z,0.00
2018-06-21T01:09:00.283Z,0.00
2018-06-21T01:10:00.324Z,0.00
2018-06-21T01:11:00.358Z,0.00
2018-06-21T01:12:00.395Z,0.00
2018-06-21T01:13:00.434Z,0.00
2018-06-21T01:14:00.468Z,0.00
2018-06-21T01:15:00.506Z,0.00
2018-06-21T01:16:00.542Z,0.00
2018-06-21T01:17:00.579Z,0.00
2018-06-21T01:18:00.616Z,0.00
2018-06-21T01:19:00.653Z,0.00
2018-06-21T01:20:00.690Z,0.00
2018-06-21T01:21:00.725Z,0.00
2018-06-21T01:22:00.763Z,0.00
2018-06-21T01:23:00.800Z,0.00
2018-06-21T01:24:00.836Z,0.00
2018-06-21T01:25:00.874Z,0.00
2018-06-21T01:26:00.911Z,0.00
2018-06-21T01:27:00.951Z,0.00
2018-06-21T01:28:00.984Z,0.00
2018-06-21T01:29:01.021Z,0.00
2018-06-21T01:30:01.059Z,0.00
2018-06-21T01:31:01.095Z,0.00
2018-06-21T01:32:01.131Z,0.00
2018-06-21T01:33:01.168Z,0.00
2018-06-21T01:34:01.208Z,0.00
2018-06-21T01:35:01.241Z,0.00
2018-06-21T01:36:01.278Z,0.00
2018-06-21T01:37:01.315Z,0.00
2018-06-21T01:38:01.355Z,0.00
2018-06-21T01:39:01.392Z,0.00
2018-06-21T01:40:01.427Z,0.00
2018-06-21T01:41:01.463Z,0.00
2018-06-21T01:42:01.498Z,0.00
2018-06-21T01:43:01.536Z,0.00
2018-06-21T01:44:01.574Z,0.00
2018-06-21T01:45:01.609Z,0.00
2018-06-21T01:46:01.646Z,0.00
2018-06-21T01:47:01.686Z,0.00
2018-06-21T01:48:01.720Z,0.00
2018-06-21T01:49:01.755Z,0.00
2018-06-21T01:50:01.794Z,0.00
2018-06-21T01:51:01.832Z,0.00
2018-06-21T01:52:01.864Z,0.00
2018-06-21T01:53:01.901Z,0.00
2018-06-21T01:54:01.939Z,0.00
2018-06-21T01:55:01.975Z,0.00
2018-06-21T01:56:02.010Z,0.00
2018-06-21T01:57:02.056Z,0.00
2018-06-21T01:58:02.087Z,0.00
2018-06-21T01:59:02.122Z,0.00
2018-06-21T02:00:02.158Z,0.00
2018-06-21T02:01:02.194Z,0.00
2018-06-21T02:02:02.231Z,0.00
2018-06-21T02:03:02.272Z,0.00
2018-06-21T02:04:02.302Z,0.00
2018-06-21T02:05:02.340Z,0.00
2018-06-21T02:06:02.377Z,0.00
2018-06-21T02:07:02.413Z,0.00
2018-06-21T02:08:02.450Z,0.00
2018-06-21T02:09:02.489Z,0.00
2018-06-21T02:10:02.523Z,0.00
2018-06-21T02:11:02.559Z,0.00
2018-06-21T02:12:02.598Z,0.00
2018-06-21T02:13:02.631Z,0.00
2018-06-21T02:14:02.668Z,0.00
2018-06-21T02:15:02.709Z,0.00
2018-06-21T02:16:02.740Z,0.00
2018-06-21T02:17:02.791Z,0.00
2018-06-21T02:18:02.815Z,0.00
2018-06-21T02:19:02.854Z,0.00
2018-06-21T02:20:02.885Z,0.00
2018-06-21T02:21:02.941Z,0.00
2018-06-21T02:22:02.958Z,0.00
2018-06-21T02:23:02.996Z,0.00
2018-06-21T02:24:03.033Z,0.00
2018-06-21T02:25:03.067Z,0.00
2018-06-21T02:26:03.105Z,0.00
2018-06-21T02:27:03.142Z,0.00
2018-06-21T02:28:03.177Z,0.00
2018-06-21T02:29:03.213Z,0.00
2018-06-21T02:30:03.252Z,0.00
2018-06-21T02:31:03.287Z,0.00
2018-06-21T02:32:03.323Z,0.00
2018-06-21T02:33:03.360Z,0.00
2018-06-21T02:34:03.396Z,0.00
2018-06-21T02:35:03.433Z,0.00
2018-06-21T02:36:03.469Z,0.00
2018-06-21T02:37:03.505Z,0.00
2018-06-21T02:38:03.541Z,0.00
2018-06-21T02:39:03.583Z,0.00
2018-06-21T02:40:03.614Z,0.00
2018-06-21T02:41:03.650Z,0.00
2018-06-21T02:42:03.687Z,0.00
2018-06-21T02:43:03.724Z,0.00
2018-06-21T02:44:03.758Z,0.00
2018-06-21T02:45:03.796Z,0.00
2018-06-21T02:46:03.833Z,0.00
2018-06-21T02:47:03.868Z,0.00
2018-06-21T02:48:03.903Z,4.00
2018-06-21T02:49:03.941Z,4.00
2018-06-21T02:50:03.977Z,0.00
2018-06-21T02:51:04.013Z,0.00
2018-06-21T02:52:04.050Z,4.00
2018-06-21T02:53:04.085Z,0.00
2018-06-21T02:54:04.123Z,4.00
2018-06-21T02:55:04.158Z,4.00
2018-06-21T02:56:04.194Z,8.00
2018-06-21T02:57:04.232Z,4.00
2018-06-21T02:58:04.267Z,8.00
2018-06-21T02:59:05.860Z,8.00
2018-06-21T03:00:04.340Z,8.00
2018-06-21T03:01:04.375Z,12.00
2018-06-21T03:02:04.412Z,16.00
2018-06-21T03:03:04.449Z,12.00
2018-06-21T03:04:04.608Z,16.00
2018-06-21T03:05:04.544Z,20.00
2018-06-21T03:06:04.559Z,20.00
2018-06-21T03:07:04.595Z,24.00
2018-06-21T03:08:04.630Z,32.00
2018-06-21T03:09:04.666Z,36.00
2018-06-21T03:10:04.703Z,36.00
2018-06-21T03:11:04.739Z,44.00
2018-06-21T03:12:04.775Z,52.00
2018-06-21T03:13:04.815Z,60.00
2018-06-21T03:14:04.848Z,64.00
2018-06-21T03:15:04.884Z,76.00
2018-06-21T03:16:04.918Z,84.00
2018-06-21T03:17:04.955Z,92.00
2018-06-21T03:18:04.992Z,108.00
2018-06-21T03:19:05.028Z,116.00
2018-06-21T03:20:05.066Z,132.00
2018-06-21T03:21:05.100Z,148.00
2018-06-21T03:22:05.173Z,160.00
2018-06-21T03:23:05.173Z,176.00
2018-06-21T03:24:05.209Z,196.00
2018-06-21T03:25:05.246Z,216.00
2018-06-21T03:26:05.280Z,232.00
2018-06-21T03:27:05.318Z,256.00
2018-06-21T03:28:05.353Z,280.00
2018-06-21T03:29:05.389Z,300.00
2018-06-21T03:30:05.425Z,324.00
2018-06-21T03:31:05.462Z,352.00
2018-06-21T03:32:05.497Z,376.00
2018-06-21T03:33:05.535Z,408.00
2018-06-21T03:34:05.570Z,432.00
2018-06-21T03:35:05.655Z,460.00
2018-06-21T03:36:05.642Z,488.00
2018-06-21T03:37:05.687Z,512.00
2018-06-21T03:38:05.714Z,540.00
2018-06-21T03:39:05.751Z,568.00
2018-06-21T03:40:05.787Z,596.00
2018-06-21T03:41:05.822Z,624.00
2018-06-21T03:42:05.859Z,656.00
2018-06-21T03:43:05.895Z,680.00
2018-06-21T03:44:05.931Z,712.00
2018-06-21T03:45:05.967Z,736.00
2018-06-21T03:46:06.003Z,768.00
2018-06-21T03:47:06.039Z,796.00
2018-06-21T03:48:06.075Z,816.00
2018-06-21T03:49:06.111Z,840.00
2018-06-21T03:50:06.150Z,868.00
2018-06-21T03:51:06.184Z,896.00
2018-06-21T03:52:06.246Z,916.00
2018-06-21T03:53:06.257Z,916.00
2018-06-21T03:54:06.293Z,924.00
2018-06-21T03:55:06.333Z,944.00
2018-06-21T03:56:06.363Z,972.00
2018-06-21T03:57:06.400Z,996.00
2018-06-21T03:58:06.437Z,1036.00
2018-06-21T03:59:06.474Z,1092.00
2018-06-21T04:00:06.508Z,1168.00
2018-06-21T04:01:06.545Z,1220.00
2018-06-21T04:02:06.582Z,1292.00
2018-06-21T04:03:06.656Z,1372.00
2018-06-21T04:04:06.653Z,1448.00
2018-06-21T04:05:06.690Z,1504.00
2018-06-21T04:06:06.727Z,1564.00
2018-06-21T04:07:06.766Z,1588.00
2018-06-21T04:08:06.800Z,1664.00
2018-06-21T04:09:06.835Z,1760.00
2018-06-21T04:10:06.873Z,1860.00
2018-06-21T04:11:06.909Z,1900.00
2018-06-21T04:12:06.945Z,1872.00
2018-06-21T04:13:06.981Z,1936.00
2018-06-21T04:14:07.020Z,2040.00
2018-06-21T04:15:07.054Z,2140.00
2018-06-21T04:16:07.090Z,2280.00
2018-06-21T04:17:07.126Z,2424.00
2018-06-21T04:18:07.163Z,2580.00
2018-06-21T04:19:07.201Z,2772.00
2018-06-21T04:20:07.235Z,2952.00
2018-06-21T04:21:07.272Z,3052.00
2018-06-21T04:22:07.309Z,3024.00
2018-06-21T04:23:07.345Z,3012.00
2018-06-21T04:24:07.381Z,3068.00
2018-06-21T04:25:07.418Z,3116.00
2018-06-21T04:26:07.460Z,3176.00
2018-06-21T04:27:07.496Z,3024.00
2018-06-21T04:28:07.565Z,2732.00
2018-06-21T04:29:07.565Z,2696.00
2018-06-21T04:30:07.601Z,2832.00
2018-06-21T04:31:07.639Z,2928.00
2018-06-21T04:32:07.676Z,3140.00
2018-06-21T04:33:07.712Z,2984.00
2018-06-21T04:34:07.749Z,2820.00
2018-06-21T04:35:07.785Z,2816.00
2018-06-21T04:36:07.822Z,2908.00
2018-06-21T04:37:07.858Z,3148.00
2018-06-21T04:38:07.895Z,3336.00
2018-06-21T04:39:07.933Z,3172.00
2018-06-21T04:40:07.969Z,3204.00
2018-06-21T04:41:08.007Z,3264.00
2018-06-21T04:42:08.044Z,3264.00
2018-06-21T04:43:08.081Z,3084.00
2018-06-21T04:44:08.116Z,3216.00
2018-06-21T04:45:08.154Z,3128.00
2018-06-21T04:46:08.191Z,3164.00
2018-06-21T04:47:08.228Z,3336.00
2018-06-21T04:48:08.265Z,3452.00
2018-06-21T04:49:08.305Z,3336.00
2018-06-21T04:50:08.338Z,3228.00
2018-06-21T04:51:08.376Z,3248.00
2018-06-21T04:52:08.412Z,3224.00
2018-06-21T04:53:08.449Z,3424.00
2018-06-21T04:54:08.487Z,3540.00
2018-06-21T04:55:08.527Z,3576.00
2018-06-21T04:56:08.559Z,3640.00
2018-06-21T04:57:08.599Z,3736.00
2018-06-21T04:58:08.635Z,3784.00
2018-06-21T04:59:08.673Z,3812.00
2018-06-21T05:00:08.721Z,3868.00
2018-06-21T05:01:08.747Z,4440.00
2018-06-21T05:02:08.782Z,4208.00
2018-06-21T05:03:08.821Z,3960.00
2018-06-21T05:04:08.858Z,4064.00
2018-06-21T05:05:08.894Z,3944.00
2018-06-21T05:06:08.940Z,4180.00
2018-06-21T05:07:08.971Z,4084.00
2018-06-21T05:08:09.007Z,3952.00
2018-06-21T05:09:09.044Z,3896.00
2018-06-21T05:10:09.081Z,4004.00
2018-06-21T05:11:09.120Z,3800.00
2018-06-21T05:12:09.156Z,3836.00
2018-06-21T05:13:09.194Z,3764.00
2018-06-21T05:14:09.232Z,3776.00
2018-06-21T05:15:09.272Z,3640.00
2018-06-21T05:16:09.309Z,3576.00
2018-06-21T05:17:09.343Z,3384.00
2018-06-21T05:18:09.436Z,3908.00
2018-06-21T05:19:09.419Z,3932.00
2018-06-21T05:20:09.456Z,3940.00
2018-06-21T05:21:09.494Z,3956.00
2018-06-21T05:22:09.532Z,3980.00
2018-06-21T05:23:09.572Z,4000.00
2018-06-21T05:24:09.615Z,4008.00
2018-06-21T05:25:09.705Z,4036.00
2018-06-21T05:26:09.682Z,4064.00
2018-06-21T05:27:09.727Z,4104.00
2018-06-21T05:28:09.770Z,4156.00
2018-06-21T05:29:09.796Z,4184.00
2018-06-21T05:30:09.834Z,4208.00
2018-06-21T05:31:09.870Z,4232.00
2018-06-21T05:32:09.966Z,4256.00
2018-06-21T05:33:09.946Z,4292.00
2018-06-21T05:34:09.984Z,4328.00
2018-06-21T05:35:10.021Z,4400.00
2018-06-21T05:36:10.089Z,4492.00
2018-06-21T05:37:10.097Z,4524.00
2018-06-21T05:38:10.134Z,4612.00
2018-06-21T05:39:10.172Z,4692.00
2018-06-21T05:40:10.209Z,4888.00
2018-06-21T05:41:10.250Z,5272.00
2018-06-21T05:42:10.285Z,5628.00
2018-06-21T05:43:10.324Z,5844.00
2018-06-21T05:44:10.361Z,6136.00
2018-06-21T05:45:10.400Z,6460.00
2018-06-21T05:46:10.438Z,6696.00
2018-06-21T05:47:10.476Z,6508.00
2018-06-21T05:48:10.513Z,6556.00
2018-06-21T05:49:10.551Z,6752.00
2018-06-21T05:50:10.640Z,6296.00
2018-06-21T05:51:10.628Z,6240.00
2018-06-21T05:52:10.667Z,6120.00
2018-06-21T05:53:10.704Z,5904.00
2018-06-21T05:54:10.742Z,5704.00
2018-06-21T05:55:10.782Z,5772.00
2018-06-21T05:56:10.820Z,5436.00
2018-06-21T05:57:10.858Z,6168.00
2018-06-21T05:58:10.895Z,6168.00
2018-06-21T05:59:10.935Z,5604.00
2018-06-21T06:00:10.973Z,5536.00
2018-06-21T06:01:11.011Z,5088.00
2018-06-21T06:02:11.051Z,5136.00
2018-06-21T06:03:11.090Z,5076.00
2018-06-21T06:04:11.127Z,5040.00
2018-06-21T06:05:11.166Z,4924.00
2018-06-21T06:06:11.205Z,4612.00
2018-06-21T06:07:11.244Z,4320.00
2018-06-21T06:08:11.291Z,4424.00
2018-06-21T06:09:11.329Z,4760.00
2018-06-21T06:10:11.426Z,4284.00
2018-06-21T06:11:11.398Z,4984.00
2018-06-21T06:12:11.437Z,4952.00
2018-06-21T06:13:11.476Z,4904.00
2018-06-21T06:14:11.533Z,4456.00
2018-06-21T06:15:11.558Z,4968.00
2018-06-21T06:16:11.592Z,4952.00
2018-06-21T06:17:11.633Z,4864.00
2018-06-21T06:18:11.671Z,4824.00
2018-06-21T06:19:11.709Z,4876.00
2018-06-21T06:20:11.748Z,4948.00
2018-06-21T06:21:11.787Z,4976.00
2018-06-21T06:22:11.826Z,5004.00
2018-06-21T06:23:11.865Z,4996.00
2018-06-21T06:24:11.924Z,4996.00
2018-06-21T06:25:11.944Z,5004.00
2018-06-21T06:26:11.984Z,5024.00
2018-06-21T06:27:12.022Z,5032.00
2018-06-21T06:28:12.061Z,5052.00
2018-06-21T06:29:12.100Z,5064.00
2018-06-21T06:30:12.139Z,5080.00
2018-06-21T06:31:12.178Z,5096.00
2018-06-21T06:32:12.217Z,5132.00
2018-06-21T06:33:12.256Z,5152.00
2018-06-21T06:34:12.295Z,5172.00
2018-06-21T06:35:12.335Z,5196.00
2018-06-21T06:36:12.380Z,5216.00
2018-06-21T06:37:12.414Z,5240.00
2018-06-21T06:38:12.451Z,5264.00
2018-06-21T06:39:12.493Z,5284.00
2018-06-21T06:40:12.531Z,5292.00
2018-06-21T06:41:12.571Z,5308.00
2018-06-21T06:42:12.609Z,5324.00
2018-06-21T06:43:12.650Z,5352.00
2018-06-21T06:44:12.692Z,5392.00
2018-06-21T06:45:12.728Z,5424.00
2018-06-21T06:46:12.822Z,5444.00
2018-06-21T06:47:12.807Z,5476.00
2018-06-21T06:48:12.847Z,5484.00
2018-06-21T06:49:12.885Z,5512.00
2018-06-21T06:50:12.925Z,5536.00
2018-06-21T06:51:12.970Z,5552.00
2018-06-21T06:52:13.004Z,5568.00
2018-06-21T06:53:13.044Z,5604.00
2018-06-21T06:54:13.091Z,5632.00
2018-06-21T06:55:13.124Z,5668.00
2018-06-21T06:56:13.163Z,5704.00
2018-06-21T06:57:13.203Z,5756.00
2018-06-21T06:58:13.242Z,5800.00
2018-06-21T06:59:13.284Z,5872.00
2018-06-21T07:00:13.323Z,5956.00
2018-06-21T07:01:13.362Z,6044.00
2018-06-21T07:02:13.403Z,6160.00
2018-06-21T07:03:13.442Z,6304.00
2018-06-21T07:04:13.481Z,6456.00
2018-06-21T07:05:13.522Z,6660.00
2018-06-21T07:06:13.561Z,6848.00
2018-06-21T07:07:13.607Z,7356.00
2018-06-21T07:08:13.658Z,7688.00
2018-06-21T07:09:13.684Z,7524.00
2018-06-21T07:10:13.721Z,7596.00
2018-06-21T07:11:13.761Z,7724.00
2018-06-21T07:12:13.801Z,7460.00
2018-06-21T07:13:13.841Z,7720.00
2018-06-21T07:14:13.925Z,7592.00
2018-06-21T07:15:13.920Z,7984.00
2018-06-21T07:16:13.960Z,8004.00
2018-06-21T07:17:14.001Z,7724.00
2018-06-21T07:18:14.040Z,8572.00
2018-06-21T07:19:14.082Z,7860.00
2018-06-21T07:20:14.120Z,6596.00
2018-06-21T07:21:14.161Z,6112.00
2018-06-21T07:22:14.202Z,5864.00
2018-06-21T07:23:14.240Z,5668.00
2018-06-21T07:24:14.282Z,5628.00
2018-06-21T07:25:14.321Z,5640.00
2018-06-21T07:26:14.362Z,7340.00
2018-06-21T07:27:14.505Z,7524.00
2018-06-21T07:28:14.443Z,7588.00
2018-06-21T07:29:14.482Z,7604.00
2018-06-21T07:31:02.093Z,7384.00
2018-06-21T07:32:02.131Z,7544.00
2018-06-21T07:33:02.169Z,8024.00
2018-06-21T07:34:02.209Z,8544.00
2018-06-21T07:35:02.249Z,9224.00
2018-06-21T07:36:02.291Z,9852.00
2018-06-21T07:37:02.331Z,10208.00
2018-06-21T07:38:02.371Z,10704.00
2018-06-21T07:39:02.526Z,10000.00
2018-06-21T07:40:02.451Z,8596.00
2018-06-21T07:41:02.491Z,8140.00
2018-06-21T07:42:02.533Z,9344.00
2018-06-21T07:43:02.574Z,8484.00
2018-06-21T07:44:02.612Z,6664.00
2018-06-21T07:45:02.658Z,8212.00
2018-06-21T07:46:02.695Z,8380.00
2018-06-21T07:47:02.736Z,8336.00
2018-06-21T07:48:02.778Z,8280.00
2018-06-21T07:49:02.819Z,8256.00
2018-06-21T07:50:02.860Z,8268.00
2018-06-21T07:51:02.899Z,8324.00
2018-06-21T07:52:02.938Z,8412.00
2018-06-21T07:53:02.977Z,8548.00
2018-06-21T07:54:03.019Z,8748.00
2018-06-21T07:55:03.060Z,8988.00
2018-06-21T07:56:03.100Z,9156.00
2018-06-21T07:57:03.141Z,9336.00
2018-06-21T07:58:03.182Z,9508.00
2018-06-21T07:59:03.289Z,9624.00
2018-06-21T08:00:03.264Z,9800.00
2018-06-21T08:01:03.305Z,9900.00
2018-06-21T08:02:03.346Z,10108.00
2018-06-21T08:03:03.390Z,10300.00
2018-06-21T08:04:03.427Z,10488.00
2018-06-21T08:05:03.488Z,10688.00
2018-06-21T08:06:03.509Z,11152.00
2018-06-21T08:07:03.550Z,12060.00
2018-06-21T08:08:03.590Z,13220.00
2018-06-21T08:09:03.632Z,13904.00
2018-06-21T08:10:03.673Z,13724.00
2018-06-21T08:11:03.715Z,13600.00
2018-06-21T08:12:03.756Z,14024.00
2018-06-21T08:13:03.797Z,15356.00
2018-06-21T08:14:03.840Z,16928.00
2018-06-21T08:15:03.882Z,18848.00
2018-06-21T08:16:03.921Z,18528.00
2018-06-21T08:17:03.961Z,16928.00
2018-06-21T08:18:04.004Z,16864.00
2018-06-21T08:19:04.068Z,15960.00
2018-06-21T08:20:04.111Z,13152.00
2018-06-21T08:21:04.145Z,15600.00
2018-06-21T08:22:04.190Z,12096.00
2018-06-21T08:23:04.234Z,14680.00
2018-06-21T08:24:04.271Z,15568.00
2018-06-21T08:25:04.315Z,16928.00
2018-06-21T08:26:04.356Z,17728.00
2018-06-21T08:27:04.416Z,17216.00
2018-06-21T08:28:04.441Z,16896.00
2018-06-21T08:29:04.484Z,15604.00
2018-06-21T08:30:04.506Z,16672.00
2018-06-21T08:31:04.548Z,15220.00
2018-06-21T08:32:04.591Z,13184.00
2018-06-21T08:33:04.681Z,14028.00
2018-06-21T08:34:04.674Z,14828.00
2018-06-21T08:35:04.717Z,11584.00
2018-06-21T08:36:04.758Z,10688.00
2018-06-21T08:37:04.800Z,11036.00
2018-06-21T08:38:04.845Z,11644.00
2018-06-21T08:39:05.102Z,12560.00
2018-06-21T08:40:05.253Z,11776.00
2018-06-21T08:41:04.969Z,13844.00
2018-06-21T08:42:05.062Z,10204.00
2018-06-21T08:43:05.057Z,9868.00
2018-06-21T08:44:05.154Z,12476.00
2018-06-21T08:45:05.139Z,12968.00
2018-06-21T08:46:05.249Z,12772.00
2018-06-21T08:47:05.223Z,12700.00
2018-06-21T08:48:05.265Z,12520.00
2018-06-21T08:49:05.307Z,12316.00
2018-06-21T08:50:05.350Z,12372.00
2018-06-21T08:51:05.392Z,12168.00
2018-06-21T08:52:05.458Z,12380.00
2018-06-21T08:53:05.475Z,12436.00
2018-06-21T08:54:05.518Z,12836.00
2018-06-21T08:55:05.568Z,12892.00
2018-06-21T08:56:05.607Z,12820.00
2018-06-21T08:57:05.642Z,12932.00
2018-06-21T08:58:05.686Z,13036.00
2018-06-21T08:59:05.728Z,13200.00
2018-06-21T09:00:05.776Z,13092.00
2018-06-21T09:01:05.812Z,13048.00
2018-06-21T09:02:05.856Z,12684.00
2018-06-21T09:03:05.900Z,12672.00
2018-06-21T09:04:05.942Z,13228.00
2018-06-21T09:05:05.983Z,13408.00
2018-06-21T09:06:06.026Z,13412.00
2018-06-21T09:07:06.069Z,13480.00
2018-06-21T09:08:06.111Z,13544.00
2018-06-21T09:09:06.152Z,13748.00
2018-06-21T09:10:06.197Z,13652.00
2018-06-21T09:11:06.238Z,13756.00
2018-06-21T09:12:06.281Z,13740.00
2018-06-21T09:13:06.323Z,13952.00
2018-06-21T09:14:06.367Z,14544.00
2018-06-21T09:15:06.409Z,15236.00
2018-06-21T09:16:06.452Z,15120.00
2018-06-21T09:17:06.495Z,15296.00
2018-06-21T09:18:06.538Z,15932.00
2018-06-21T09:19:06.579Z,16700.00
2018-06-21T09:20:06.624Z,17312.00
2018-06-21T09:21:06.693Z,17632.00
2018-06-21T09:22:06.710Z,18656.00
2018-06-21T09:23:06.752Z,18432.00
2018-06-21T09:24:06.794Z,16704.00
2018-06-21T09:25:06.850Z,17280.00
2018-06-21T09:26:06.889Z,17728.00
2018-06-21T09:27:06.925Z,18208.00
2018-06-21T09:28:06.986Z,18816.00
2018-06-21T09:29:07.090Z,18848.00
2018-06-21T09:30:07.054Z,19040.00
2018-06-21T09:32:07.142Z,15668.00
2018-06-21T09:33:07.187Z,19424.00
2018-06-21T09:34:07.227Z,19584.00
2018-06-21T09:35:07.278Z,22176.00
2018-06-21T09:36:07.316Z,23200.00
2018-06-21T09:37:07.359Z,24416.00
2018-06-21T09:38:07.421Z,24320.00
2018-06-21T09:39:07.447Z,24800.00
2018-06-21T09:40:07.491Z,21888.00
2018-06-21T09:41:07.534Z,21056.00
2018-06-21T09:42:07.580Z,19200.00
2018-06-21T09:43:07.624Z,19168.00
2018-06-21T09:44:07.666Z,23552.00
2018-06-21T09:45:07.709Z,19744.00
2018-06-21T09:46:07.754Z,22240.00
2018-06-21T09:47:07.818Z,19968.00
2018-06-21T09:48:07.843Z,18912.00
2018-06-21T09:49:07.886Z,17888.00
2018-06-21T09:50:07.930Z,17664.00
2018-06-21T09:51:07.974Z,18240.00
2018-06-21T09:52:08.023Z,18528.00
2018-06-21T09:53:08.061Z,18912.00
2018-06-21T09:54:08.105Z,19392.00
2018-06-21T09:55:08.150Z,17984.00
2018-06-21T09:56:08.196Z,18560.00
2018-06-21T09:57:08.238Z,18016.00
2018-06-21T09:58:08.281Z,20256.00
2018-06-21T09:59:08.327Z,22304.00
2018-06-21T10:00:08.371Z,22688.00
2018-06-21T10:01:08.414Z,21728.00
2018-06-21T10:02:08.460Z,25568.00
2018-06-21T10:03:08.504Z,22240.00
2018-06-21T10:04:08.547Z,23648.00
2018-06-21T10:05:08.590Z,24448.00
2018-06-21T10:06:08.635Z,24992.00
2018-06-21T10:07:08.703Z,24320.00
2018-06-21T10:08:08.723Z,23520.00
2018-06-21T10:09:08.766Z,23584.00
2018-06-21T10:10:08.811Z,23072.00
2018-06-21T10:11:08.855Z,22592.00
2018-06-21T10:12:08.900Z,22688.00
2018-06-21T10:13:08.965Z,23360.00
2018-06-21T10:14:08.991Z,24032.00
2018-06-21T10:15:09.034Z,25280.00
2018-06-21T10:16:09.081Z,25696.00
2018-06-21T10:17:09.124Z,26656.00
2018-06-21T10:18:09.170Z,27552.00
2018-06-21T10:19:09.214Z,29856.00
2018-06-21T10:20:09.260Z,29344.00
2018-06-21T10:21:09.303Z,33536.00
2018-06-21T10:22:09.348Z,30208.00
2018-06-21T10:23:09.450Z,33056.00
2018-06-21T10:24:09.441Z,26240.00
2018-06-21T10:25:09.489Z,22464.00
2018-06-21T10:26:09.530Z,21344.00
2018-06-21T10:27:09.577Z,21792.00
2018-06-21T10:28:09.622Z,24352.00
2018-06-21T10:29:09.668Z,30048.00
2018-06-21T10:30:09.713Z,30336.00
2018-06-21T10:31:09.759Z,27040.00
2018-06-21T10:32:09.806Z,29920.00
2018-06-21T10:33:09.851Z,30240.00
2018-06-21T10:34:09.897Z,30464.00
2018-06-21T10:35:09.995Z,29376.00
2018-06-21T10:36:09.987Z,28704.00
2018-06-21T10:37:10.033Z,26976.00
2018-06-21T10:38:10.080Z,26720.00
2018-06-21T10:39:10.125Z,32768.00
2018-06-21T10:40:10.170Z,30592.00
2018-06-21T10:41:10.216Z,22112.00
2018-06-21T10:42:10.264Z,23456.00
2018-06-21T10:43:10.308Z,32064.00
2018-06-21T10:44:10.354Z,34208.00
2018-06-21T10:45:10.399Z,37472.00
2018-06-21T10:46:10.445Z,51296.00
2018-06-21T10:47:10.491Z,41312.00
2018-06-21T10:48:10.537Z,72800.00
2018-06-21T10:49:10.638Z,46656.00
2018-06-21T10:50:10.631Z,64800.00
2018-06-21T10:51:10.678Z,78144.00
2018-06-21T10:52:10.726Z,78144.00
2018-06-21T10:53:10.774Z,92160.00
2018-06-21T10:54:10.819Z,99136.00
2018-06-21T10:55:10.885Z,101568.00
2018-06-21T10:56:10.935Z,36096.00
2018-06-21T10:57:10.978Z,97952.00
2018-06-21T10:58:13.635Z,104704.00
2018-06-21T10:59:13.687Z,95552.00
2018-06-21T11:00:11.112Z,81728.00
2018-06-21T11:01:11.160Z,74720.00
2018-06-21T11:02:11.208Z,81664.00
2018-06-21T11:03:11.291Z,101280.00
2018-06-21T11:04:11.310Z,89888.00
2018-06-21T11:05:11.359Z,90720.00
2018-06-21T11:06:11.409Z,53376.00
2018-06-21T11:07:11.459Z,46208.00
2018-06-21T11:08:11.510Z,40256.00
2018-06-21T11:09:11.560Z,40256.00
2018-06-21T11:10:11.611Z,38016.00
2018-06-21T11:11:11.661Z,24704.00
2018-06-21T11:12:11.711Z,24768.00
2018-06-21T11:13:11.761Z,33952.00
2018-06-21T11:14:11.812Z,36928.00
2018-06-21T11:15:11.865Z,44352.00
2018-06-21T11:16:11.913Z,32416.00
2018-06-21T11:17:11.961Z,48512.00
2018-06-21T11:18:12.010Z,58720.00
2018-06-21T11:19:12.061Z,60256.00
2018-06-21T11:20:12.111Z,67776.00
2018-06-21T11:21:12.158Z,68992.00
2018-06-21T11:22:12.206Z,64800.00
2018-06-21T11:23:12.257Z,70336.00
2018-06-21T11:24:12.380Z,26848.00
2018-06-21T11:25:12.354Z,40992.00
2018-06-21T11:26:12.404Z,24000.00
2018-06-21T11:27:12.454Z,71040.00
2018-06-21T11:28:12.503Z,82912.00
2018-06-21T11:29:12.552Z,73216.00
2018-06-21T11:30:12.617Z,69888.00
2018-06-21T11:31:12.650Z,66528.00
2018-06-21T11:32:12.701Z,75648.00
2018-06-21T11:33:12.749Z,67168.00
2018-06-21T11:34:12.799Z,83456.00
2018-06-21T11:35:12.848Z,96736.00
2018-06-21T11:36:12.897Z,103616.00
2018-06-21T11:37:12.947Z,113312.00
2018-06-21T11:38:13.003Z,79904.00
2018-06-21T11:39:13.048Z,46784.00
2018-06-21T11:40:13.139Z,56448.00
2018-06-21T11:41:13.147Z,105504.00
2018-06-21T11:42:13.199Z,115968.00
2018-06-21T11:43:13.256Z,107296.00
2018-06-21T11:44:13.300Z,65216.00
2018-06-21T11:45:13.351Z,49920.00
2018-06-21T11:46:13.422Z,40288.00
2018-06-21T11:47:13.457Z,71296.00
2018-06-21T11:48:13.541Z,94432.00
2018-06-21T11:49:13.555Z,113856.00
2018-06-21T11:50:13.606Z,123808.00
2018-06-21T11:51:13.663Z,32800.00
2018-06-21T11:52:13.736Z,32256.00
2018-06-21T11:53:13.760Z,44704.00
2018-06-21T11:54:13.812Z,31456.00
2018-06-21T11:55:13.863Z,26848.00
2018-06-21T11:56:13.914Z,47936.00
2018-06-21T11:57:13.971Z,60928.00
2018-06-21T11:58:14.014Z,114688.00
2018-06-21T11:59:14.066Z,118528.00
2018-06-21T12:00:14.117Z,126464.00
2018-06-21T12:01:14.169Z,119904.00
2018-06-21T12:02:14.219Z,87584.00
2018-06-21T12:03:14.278Z,82240.00
2018-06-21T12:04:14.320Z,24256.00
2018-06-21T12:05:14.372Z,23040.00
2018-06-21T12:06:14.421Z,20704.00
2018-06-21T12:07:14.471Z,26880.00
2018-06-21T12:08:14.522Z,19648.00
2018-06-21T12:09:14.573Z,22048.00
2018-06-21T12:10:14.623Z,23296.00
2018-06-21T12:11:14.672Z,20192.00
2018-06-21T12:12:14.727Z,20064.00
2018-06-21T12:13:14.772Z,21760.00
2018-06-21T12:14:14.823Z,25760.00
2018-06-21T12:15:14.871Z,117312.00
2018-06-21T12:16:14.920Z,106240.00
2018-06-21T12:17:14.967Z,118208.00
2018-06-21T12:18:15.016Z,106560.00
2018-06-21T12:19:15.065Z,47328.00